Kirkville, IA

10:12 AM CDT on September 17, 2014 (GMT -0500)
Oskaloosa Municipal | Change Station
CLOSE
Current Station
Airport
Location: Oskaloosa,
Elevation: 840 ft
Nearby Weather Stations

Elev 840 ft 41.23 °N, 92.49 °W | Updated 17 minutes ago

Overcast
Overcast
57 °F
Feels Like 57 °F
N
5
Wind Variable Wind from SE

Today
High -- | Low -- °F
--% Chance of Precip.
Yesterday
High -- | Low -- °F
Precip. -- in
6:52 AM 7:15 PM
Waning Crescent, 35% visible
Pressure 29.99 in
Visibility 10.0 miles
Clouds Mostly Cloudy 4800 ft
Mostly Cloudy 6000 ft
Overcast 7500 ft
Dew Point 55 °F
Humidity 91%
Rainfall 0.00 in
Snow Depth Not available.
UV 1 out of 12
Pollen 5.90 out of 12
Air Quality Not available.
Flu Activity Not available.
METAR KOOA 171455Z AUTO 14004KT 10SM BKN048 BKN060 OVC075 14/13 A2999 RMK AO2 T01400126

More Conditions Fewer Conditions

Pressure 29.99 in
Visibility 10.0 miles
Clouds Mostly Cloudy 4800 ft
Mostly Cloudy 6000 ft
Overcast 7500 ft
Dew Point 55 °F
Humidity 91%
Rainfall 0.00 in
Snow Depth Not available.
UV 1 out of 12
Pollen 5.90 out of 12
Air Quality Not available.
Flu Activity Not available.
METAR KOOA 171455Z AUTO 14004KT 10SM BKN048 BKN060 OVC075 14/13 A2999 RMK AO2 T01400126

More Conditions Fewer Conditions

10-Day Weather Forecast

Almanac

Astronomy

Sep. 17, 2014 Rise Set
Actual Time 6:52 AM CDT 7:15 PM CDT
Civil Twilight 6:24 AM CDT 7:43 PM CDT
Nautical Twilight 5:52 AM CDT 8:15 PM CDT
Astronomical Twilight 5:18 AM CDT 8:48 PM CDT
Moon 12:50 AM CDT 3:27 PM CDT
Length of Visible Light 13h 18m
Length of Day
12h 23m
Tomorrow will be 2m 42s shorter.
Waning Crescent, 35% of the Moon is Illuminated
Today
Waning Crescent
Sep 24
New
Oct 1
First Quarter
Oct 8
Full
Oct 15
Last Quarter

Today's Extremes

State Highs State Lows

Community

WunderPhotos

Upload Photos

1,754,067 photos uploaded!

WunderBlogs® & News

Nearby

Snow Depth

Station Depth Elevation
No new snow has been reported.

Earthquake Activity

City Distance Mag. Time & Date
No recent earthquake activity has been reported nearby.
Minimum magnitude displayed is 2.5.

Coastal Water Temperatures

Place Temperature
No Stations Reporting

Nearby Weather Stations